createdAt,value
2018-09-11T00:00:53.130Z,99.99
2018-09-11T00:01:53.025Z,99.99
2018-09-11T00:02:52.971Z,99.99
2018-09-11T00:03:52.896Z,99.99
2018-09-11T00:06:34.845Z,99.99
2018-09-11T00:07:35.774Z,99.99
2018-09-11T00:08:34.655Z,99.99
2018-09-11T00:09:34.602Z,99.99
2018-09-11T00:10:34.555Z,99.99
2018-09-11T00:11:34.421Z,99.99
2018-09-11T00:12:34.341Z,99.99
2018-09-11T00:13:34.260Z,99.99
2018-09-11T00:14:34.203Z,99.99
2018-09-11T00:17:16.319Z,99.99
2018-09-11T00:18:16.260Z,99.99
2018-09-11T00:19:16.171Z,99.99
2018-09-11T00:20:16.108Z,99.99
2018-09-11T00:21:15.996Z,99.99
2018-09-11T00:22:15.930Z,99.99
2018-09-11T00:23:15.965Z,99.99
2018-09-11T00:24:15.765Z,99.99
2018-09-11T00:27:39.858Z,99.99
2018-09-11T00:28:39.753Z,99.99
2018-09-11T00:29:39.685Z,99.99
2018-09-11T00:30:39.587Z,99.99
2018-09-11T00:31:39.510Z,99.99
2018-09-11T00:32:39.427Z,99.99
2018-09-11T00:33:39.379Z,99.99
2018-09-11T00:34:39.270Z,99.99
2018-09-11T00:35:39.184Z,99.99
2018-09-11T00:36:39.102Z,99.99
2018-09-11T00:37:39.026Z,99.99
2018-09-11T00:38:38.970Z,99.99
2018-09-11T00:39:38.869Z,99.99
2018-09-11T00:40:38.816Z,99.99
2018-09-11T00:41:38.712Z,99.99
2018-09-11T00:42:38.631Z,99.99
2018-09-11T00:43:38.550Z,99.99
2018-09-11T00:44:38.471Z,99.49
2018-09-11T00:45:38.410Z,99.58
2018-09-11T00:46:38.313Z,98.62
2018-09-11T00:47:38.234Z,98.62
2018-09-11T00:48:38.153Z,98.82
2018-09-11T00:49:38.073Z,98.33
2018-09-11T00:50:38.005Z,98.14
2018-09-11T00:51:37.915Z,97.76
2018-09-11T00:52:37.832Z,97.76
2018-09-11T00:53:37.742Z,97.86
2018-09-11T00:54:37.681Z,97.95
2018-09-11T00:55:37.612Z,97.76
2018-09-11T00:56:37.520Z,98.14
2018-09-11T00:57:37.440Z,97.95
2018-09-11T00:58:37.351Z,97.95
2018-09-11T01:01:19.367Z,97.56
2018-09-11T01:04:01.334Z,97.76
2018-09-11T01:05:01.264Z,97.95
2018-09-11T01:06:01.193Z,98.43
2018-09-11T01:07:01.107Z,98.14
2018-09-11T01:08:01.026Z,98.14
2018-09-11T01:10:42.847Z,99.01
2018-09-11T01:11:42.786Z,98.72
2018-09-11T01:12:42.675Z,99.10
2018-09-11T01:13:42.602Z,99.24
2018-09-11T01:14:42.522Z,99.49
2018-09-11T01:17:24.354Z,99.63
2018-09-11T01:18:24.268Z,99.63
2018-09-11T01:19:24.177Z,99.91
2018-09-11T01:20:24.116Z,99.91
2018-09-11T01:21:24.206Z,99.82
2018-09-11T01:22:23.950Z,99.99
2018-09-11T01:47:06.366Z,99.99
2018-09-11T01:48:06.339Z,99.99
2018-09-11T01:49:06.197Z,99.99
2018-09-11T01:50:06.122Z,99.99
2018-09-11T01:51:06.038Z,99.99
2018-09-11T01:53:47.857Z,99.99
2018-09-11T01:54:47.768Z,99.99
2018-09-11T01:55:47.683Z,99.99
2018-09-11T01:56:47.626Z,99.99
2018-09-11T01:57:47.540Z,99.99
2018-09-11T02:00:20.620Z,99.99
2018-09-11T02:01:18.875Z,99.99
2018-09-11T02:02:18.831Z,99.99
2018-09-11T02:03:18.736Z,99.99
2018-09-11T02:04:18.663Z,99.99
2018-09-11T02:05:18.558Z,99.99
2018-09-11T02:06:18.493Z,99.99
2018-09-11T02:07:18.400Z,99.99
2018-09-11T02:08:18.326Z,99.99
2018-09-11T02:09:18.273Z,99.99
2018-09-11T02:10:18.169Z,99.99
2018-09-11T02:11:18.080Z,99.99
2018-09-11T02:12:18.001Z,99.99
2018-09-11T02:13:17.938Z,99.99
2018-09-11T02:14:17.927Z,99.99
2018-09-11T02:15:17.787Z,99.99
2018-09-11T02:16:17.684Z,99.99
2018-09-11T02:17:17.654Z,99.99
2018-09-11T02:18:17.549Z,99.99
2018-09-11T02:19:17.436Z,99.99
2018-09-11T02:20:17.517Z,99.99
2018-09-11T02:21:17.281Z,99.99
2018-09-11T02:23:59.557Z,99.99
2018-09-11T02:24:59.452Z,99.99
2018-09-11T02:25:59.375Z,99.99
2018-09-11T02:26:59.310Z,99.99
2018-09-11T02:27:59.217Z,99.99
2018-09-11T02:28:59.166Z,99.99
2018-09-11T02:29:59.104Z,99.99
2018-09-11T02:30:58.967Z,99.99
2018-09-11T02:31:58.882Z,99.99
2018-09-11T02:32:58.818Z,99.99
2018-09-11T02:33:58.724Z,99.99
2018-09-11T02:34:58.672Z,99.99
2018-09-11T02:35:58.604Z,99.99
2018-09-11T02:36:58.496Z,99.99
2018-09-11T02:37:58.407Z,99.99
2018-09-11T02:38:58.336Z,99.99
2018-09-11T02:39:58.249Z,99.99
2018-09-11T02:40:58.202Z,99.99
2018-09-11T02:41:58.087Z,99.99
2018-09-11T02:42:58.005Z,99.99
2018-09-11T02:43:57.919Z,99.99
2018-09-11T02:44:57.863Z,99.99
2018-09-11T02:45:57.788Z,99.99
2018-09-11T02:46:57.696Z,99.99
2018-09-11T02:47:57.614Z,99.99
2018-09-11T02:48:57.533Z,99.99
2018-09-11T02:49:57.447Z,99.99
2018-09-11T02:50:57.367Z,99.99
2018-09-11T02:51:57.306Z,99.99
2018-09-11T02:52:57.216Z,99.99
2018-09-11T02:53:57.124Z,99.99
2018-09-11T02:54:57.052Z,99.99
2018-09-11T02:55:57.048Z,99.99
2018-09-11T02:56:57.903Z,99.99
2018-09-11T02:57:56.806Z,99.99
2018-09-11T02:58:56.744Z,99.99
2018-09-11T02:59:56.647Z,99.99
2018-09-11T03:00:56.604Z,99.99
2018-09-11T03:01:56.482Z,99.99
2018-09-11T03:02:56.416Z,99.99
2018-09-11T03:03:56.323Z,99.99
2018-09-11T03:04:56.251Z,99.99
2018-09-11T03:05:56.169Z,99.99
2018-09-11T03:06:56.135Z,99.99
2018-09-11T03:07:56.004Z,99.99
2018-09-11T03:10:38.039Z,99.99
2018-09-11T03:13:20.060Z,99.99
2018-09-11T03:14:19.982Z,99.99
2018-09-11T03:15:19.876Z,99.99
2018-09-11T03:16:19.815Z,99.99
2018-09-11T03:17:19.743Z,99.99
2018-09-11T03:18:19.645Z,99.99
2018-09-11T03:19:19.553Z,99.99
2018-09-11T03:20:19.481Z,99.99
2018-09-11T03:21:19.407Z,99.99
2018-09-11T03:22:19.346Z,99.99
2018-09-11T03:23:19.243Z,99.99
2018-09-11T03:26:01.552Z,99.99
2018-09-11T03:27:01.487Z,99.99
2018-09-11T03:28:01.407Z,99.99
2018-09-11T03:29:01.318Z,99.99
2018-09-11T03:30:01.232Z,99.99
2018-09-11T03:31:01.149Z,99.99
2018-09-11T03:32:01.061Z,99.99
2018-09-11T03:33:01.015Z,99.99
2018-09-11T03:34:00.897Z,99.99
2018-09-11T03:35:00.830Z,99.99
2018-09-11T03:36:00.741Z,99.99
2018-09-11T03:37:00.667Z,99.99
2018-09-11T03:38:00.599Z,99.99
2018-09-11T03:39:00.510Z,99.99
2018-09-11T03:40:00.427Z,99.99
2018-09-11T03:42:42.580Z,99.99
2018-09-11T03:43:42.474Z,99.99
2018-09-11T03:44:42.385Z,99.99
2018-09-11T03:45:42.312Z,99.99
2018-09-11T03:46:42.224Z,99.99
2018-09-11T03:47:42.155Z,99.99
2018-09-11T03:48:42.087Z,99.99
2018-09-11T03:49:42.001Z,99.99
2018-09-11T03:50:41.908Z,99.99
2018-09-11T03:51:41.844Z,99.99
2018-09-11T03:52:41.774Z,99.99
2018-09-11T03:53:42.701Z,99.99
2018-09-11T03:54:41.592Z,99.99
2018-09-11T03:55:41.547Z,99.99
2018-09-11T03:56:41.422Z,99.99
2018-09-11T03:57:41.364Z,99.99
2018-09-11T03:58:41.312Z,99.99
2018-09-11T03:59:41.198Z,99.99
2018-09-11T04:00:41.103Z,99.99
2018-09-11T04:03:23.081Z,99.99
2018-09-11T04:04:44.084Z,99.99
2018-09-11T04:05:22.916Z,99.99
2018-09-11T04:06:22.810Z,99.99
2018-09-11T04:07:22.885Z,99.99
2018-09-11T04:08:22.661Z,99.99
2018-09-11T04:09:22.685Z,99.99
2018-09-11T04:10:22.501Z,99.99
2018-09-11T04:11:22.463Z,99.99
2018-09-11T04:12:22.340Z,99.99
2018-09-11T04:13:22.360Z,99.99
2018-09-11T04:14:22.203Z,99.99
2018-09-11T04:17:04.056Z,99.82
2018-09-11T04:18:04.060Z,99.77
2018-09-11T04:19:03.893Z,99.99
2018-09-11T04:20:03.915Z,99.99
2018-09-11T04:21:03.729Z,99.99
2018-09-11T04:22:03.663Z,99.99
2018-09-11T04:23:03.576Z,99.99
2018-09-11T04:24:03.596Z,99.99
2018-09-11T04:25:03.462Z,99.99
2018-09-11T04:26:03.405Z,99.99
2018-09-11T04:27:03.261Z,99.99
2018-09-11T04:28:03.325Z,99.99
2018-09-11T04:29:03.123Z,99.99
2018-09-11T04:30:03.174Z,99.87
2018-09-11T04:31:02.993Z,99.39
2018-09-11T04:32:03.594Z,99.58
2018-09-11T04:33:02.777Z,99.58
2018-09-11T04:34:02.743Z,99.96
2018-09-11T04:35:02.635Z,99.77
2018-09-11T04:36:02.645Z,99.68
2018-09-11T04:37:02.460Z,99.99
2018-09-11T04:38:02.389Z,99.68
2018-09-11T04:39:02.302Z,99.49
2018-09-11T04:40:02.250Z,99.01
2018-09-11T04:41:02.137Z,99.01
2018-09-11T04:42:02.077Z,98.53
2018-09-11T04:43:02.050Z,98.82
2018-09-11T04:44:01.900Z,98.91
2018-09-11T04:45:01.838Z,99.20
2018-09-11T04:46:01.787Z,99.29
2018-09-11T04:47:01.676Z,98.82
2018-09-11T04:48:01.586Z,98.91
2018-09-11T04:49:01.502Z,99.29
2018-09-11T04:50:01.555Z,99.01
2018-09-11T04:51:01.349Z,98.91
2018-09-11T04:53:43.580Z,98.53
2018-09-11T04:54:43.494Z,98.62
2018-09-11T04:55:43.423Z,99.01
2018-09-11T04:56:43.337Z,99.01
2018-09-11T04:57:43.248Z,98.82
2018-09-11T04:58:43.179Z,98.91
2018-09-11T05:22:05.355Z,98.53
2018-09-11T05:23:05.158Z,98.62
2018-09-11T05:24:05.087Z,98.05
2018-09-11T05:25:04.982Z,98.33
2018-09-11T05:26:04.916Z,98.33
2018-09-11T05:27:04.874Z,98.53
2018-09-11T05:28:04.770Z,98.43
2018-09-11T05:29:04.663Z,98.24
2018-09-11T05:30:04.612Z,98.82
2018-09-11T05:31:04.513Z,99.01
2018-09-11T05:32:04.455Z,98.72
2018-09-11T05:33:04.351Z,98.43
2018-09-11T05:34:04.273Z,98.91
2018-09-11T05:35:04.193Z,98.62
2018-09-11T05:36:04.116Z,98.91
2018-09-11T05:37:04.039Z,99.20
2018-09-11T05:38:03.993Z,99.20
2018-09-11T05:39:03.935Z,99.20
2018-09-11T05:40:03.803Z,98.91
2018-09-11T05:41:03.715Z,98.82
2018-09-11T05:42:03.647Z,98.82
2018-09-11T05:43:03.544Z,99.87
2018-09-11T05:45:45.589Z,99.01
2018-09-11T05:46:45.539Z,99.20
2018-09-11T05:47:45.443Z,98.91
2018-09-11T05:50:27.589Z,99.20
2018-09-11T05:51:27.556Z,99.29
2018-09-11T05:52:27.466Z,99.01
2018-09-11T05:53:27.380Z,99.10
2018-09-11T05:54:27.258Z,99.49
2018-09-11T05:55:27.197Z,99.29
2018-09-11T05:56:27.107Z,99.68
2018-09-11T05:57:27.035Z,99.01
2018-09-11T05:58:27.036Z,99.01
2018-09-11T05:59:26.868Z,99.01
2018-09-11T06:00:26.784Z,98.91
2018-09-11T06:01:26.738Z,99.68
2018-09-11T06:02:26.622Z,99.49
2018-09-11T06:03:26.570Z,99.49
2018-09-11T06:04:26.459Z,99.49
2018-09-11T06:05:26.400Z,99.68
2018-09-11T06:06:26.303Z,99.58
2018-09-11T06:07:26.393Z,99.01
2018-09-11T06:08:26.139Z,99.01
2018-09-11T06:11:08.133Z,99.01
2018-09-11T06:12:09.032Z,98.91
2018-09-11T06:13:07.931Z,99.54
2018-09-11T06:14:07.873Z,99.01
2018-09-11T06:15:07.767Z,99.10
2018-09-11T06:17:49.599Z,98.62
2018-09-11T06:18:50.658Z,98.77
2018-09-11T06:19:49.425Z,98.77
2018-09-11T06:20:49.364Z,98.29
2018-09-11T06:21:49.273Z,99.05
2018-09-11T06:22:49.192Z,98.29
2018-09-11T06:23:49.132Z,98.48
2018-09-11T06:24:49.049Z,97.71
2018-09-11T06:25:49.023Z,98.58
2018-09-11T06:29:35.121Z,98.00
2018-09-11T06:30:35.017Z,98.19
2018-09-11T06:31:34.945Z,98.24
2018-09-11T06:32:34.862Z,97.09
2018-09-11T06:33:34.787Z,96.17
2018-09-11T06:34:34.716Z,95.79
2018-09-11T06:46:11.543Z,95.50
2018-09-11T06:47:11.423Z,95.79
2018-09-11T06:48:11.349Z,95.31
2018-09-11T06:49:11.379Z,93.87
2018-09-11T06:50:11.209Z,91.03
2018-09-11T06:51:11.096Z,90.50
2018-09-11T06:53:53.108Z,87.94
2018-09-11T06:54:53.129Z,85.47
2018-09-11T06:55:53.163Z,85.33
2018-09-11T06:56:52.872Z,83.98
2018-09-11T06:57:52.797Z,83.78
2018-09-11T06:58:52.741Z,83.53
2018-09-11T06:59:52.648Z,82.53
2018-09-11T07:00:52.589Z,82.18
2018-09-11T07:01:52.520Z,80.14
2018-09-11T07:02:52.394Z,78.19
2018-09-11T07:03:52.322Z,75.85
2018-09-11T07:04:52.304Z,74.40
2018-09-11T07:05:52.188Z,73.59
2018-09-11T07:06:52.085Z,74.85
2018-09-11T07:07:52.092Z,75.68
2018-09-11T07:08:51.923Z,77.53
2018-09-11T07:09:51.841Z,79.43
2018-09-11T07:10:51.816Z,81.09
2018-09-11T07:11:51.709Z,82.53
2018-09-11T07:12:51.618Z,81.90
2018-09-11T07:13:51.533Z,81.51
2018-09-11T07:14:51.537Z,81.51
2018-09-11T07:15:51.525Z,82.92
2018-09-11T07:16:51.399Z,83.40
2018-09-11T07:17:51.230Z,83.88
2018-09-11T07:18:51.161Z,83.88
2018-09-11T07:19:51.168Z,84.70
2018-09-11T07:20:52.015Z,84.95
2018-09-11T07:21:51.083Z,85.91
2018-09-11T07:22:50.857Z,86.21
2018-09-11T07:23:50.787Z,86.40
2018-09-11T07:24:50.733Z,87.12
2018-09-11T07:25:51.219Z,88.09
2018-09-11T07:26:50.883Z,88.95
2018-09-11T07:27:50.642Z,90.45
2018-09-11T07:28:51.150Z,90.01
2018-09-11T07:29:50.319Z,89.43
2018-09-11T07:30:50.231Z,89.43
2018-09-11T07:31:50.177Z,89.15
2018-09-11T07:32:50.093Z,89.24
2018-09-11T07:33:50.007Z,89.34
2018-09-11T07:36:32.169Z,91.17
2018-09-11T07:37:33.475Z,90.45
2018-09-11T07:38:31.967Z,90.64
2018-09-11T07:39:31.892Z,91.22
2018-09-11T07:40:31.808Z,90.97
2018-09-11T07:41:31.735Z,90.93
2018-09-11T07:42:31.747Z,91.41
2018-09-11T07:43:31.604Z,90.83
2018-09-11T07:44:31.497Z,91.13
2018-09-11T07:45:31.495Z,91.36
2018-09-11T07:46:31.341Z,90.50
2018-09-11T07:47:31.286Z,90.69
2018-09-11T07:48:31.208Z,90.69
2018-09-11T07:49:31.112Z,90.16
2018-09-11T07:50:31.017Z,87.50
2018-09-11T07:51:30.963Z,86.29
2018-09-11T07:52:30.984Z,85.71
2018-09-11T07:53:30.807Z,85.42
2018-09-11T07:54:30.708Z,82.56
2018-09-11T07:55:30.639Z,79.16
2018-09-11T07:56:30.578Z,77.24
2018-09-11T07:57:30.522Z,75.31
2018-09-11T07:58:30.416Z,75.31
2018-09-11T08:01:12.645Z,76.72
2018-09-11T08:02:12.576Z,75.11
2018-09-11T08:03:12.571Z,74.70
2018-09-11T08:04:12.414Z,72.77
2018-09-11T08:05:12.355Z,71.67
2018-09-11T08:06:12.250Z,72.22
2018-09-11T08:07:12.177Z,70.83
2018-09-11T08:08:12.129Z,69.32
2018-09-11T08:09:12.012Z,69.02
2018-09-11T08:11:54.815Z,66.96
2018-09-11T08:12:54.772Z,66.37
2018-09-11T08:13:53.976Z,66.86
2018-09-11T08:14:53.918Z,65.14
2018-09-11T08:15:53.836Z,64.78
2018-09-11T08:16:53.776Z,64.56
2018-09-11T08:17:53.721Z,65.33
2018-09-11T08:18:53.649Z,66.79
2018-09-11T08:19:53.542Z,68.31
2018-09-11T08:20:53.469Z,68.66
2018-09-11T08:21:53.386Z,69.76
2018-09-11T08:22:53.320Z,71.31
2018-09-11T08:23:53.278Z,70.41
2018-09-11T08:24:53.201Z,69.48
2018-09-11T08:25:53.104Z,68.60
2018-09-11T08:26:53.040Z,70.70
2018-09-11T08:27:52.971Z,72.05
2018-09-11T08:28:53.911Z,74.34
2018-09-11T08:29:52.814Z,73.25
2018-09-11T08:30:52.757Z,71.93
2018-09-11T08:31:52.666Z,71.44
2018-09-11T08:32:52.597Z,71.19
2018-09-11T08:33:52.550Z,68.73
2018-09-11T08:34:52.468Z,67.18
2018-09-11T08:35:52.485Z,67.66
2018-09-11T08:38:34.648Z,66.47
2018-09-11T08:39:34.620Z,66.69
2018-09-11T08:40:34.489Z,66.82
2018-09-11T08:41:34.436Z,66.11
2018-09-11T08:42:34.363Z,64.52
2018-09-11T08:43:34.296Z,62.54
2018-09-11T08:44:34.242Z,62.09
2018-09-11T08:47:16.153Z,63.13
2018-09-11T08:48:16.089Z,64.65
2018-09-11T08:49:16.055Z,64.98
2018-09-11T08:50:15.936Z,65.92
2018-09-11T08:51:15.860Z,63.71
2018-09-11T08:53:58.296Z,61.93
2018-09-11T08:54:58.144Z,62.12
2018-09-11T08:55:58.146Z,62.87
2018-09-11T08:56:58.087Z,62.70
2018-09-11T08:57:57.879Z,63.09
2018-09-11T08:58:58.776Z,61.83
2018-09-11T08:59:57.751Z,61.96
2018-09-11T09:00:57.746Z,61.86
2018-09-11T09:01:57.602Z,63.16
2018-09-11T09:02:57.525Z,62.22
2018-09-11T09:03:57.608Z,62.57
2018-09-11T09:04:57.413Z,62.25
2018-09-11T09:08:42.705Z,62.96
2018-09-11T09:09:42.621Z,62.51
2018-09-11T09:10:42.548Z,61.47
2018-09-11T09:11:42.452Z,61.01
2018-09-11T09:12:42.402Z,60.92
2018-09-11T09:13:42.316Z,64.17
2018-09-11T09:14:42.283Z,65.27
2018-09-11T09:15:42.362Z,65.85
2018-09-11T09:16:42.113Z,65.98
2018-09-11T09:17:42.044Z,64.78
2018-09-11T09:18:42.057Z,63.45
2018-09-11T09:19:41.918Z,62.96
2018-09-11T09:20:41.853Z,62.19
2018-09-11T09:21:41.924Z,63.29
2018-09-11T09:24:23.677Z,63.68
2018-09-11T09:25:23.826Z,65.50
2018-09-11T09:26:23.556Z,64.91
2018-09-11T09:27:23.489Z,64.59
2018-09-11T09:28:23.384Z,62.67
2018-09-11T09:52:45.427Z,63.55
2018-09-11T09:53:45.298Z,62.77
2018-09-11T09:54:45.281Z,62.96
2018-09-11T09:57:27.216Z,61.27
2018-09-11T09:58:27.124Z,61.15
2018-09-11T09:59:27.078Z,61.18
2018-09-11T10:00:27.003Z,60.91
2018-09-11T10:01:26.900Z,61.30
2018-09-11T10:02:26.876Z,60.23
2018-09-11T10:03:26.778Z,59.02
2018-09-11T10:04:26.745Z,57.56
2018-09-11T10:05:26.621Z,58.92
2018-09-11T10:08:08.709Z,60.20
2018-09-11T10:10:50.686Z,61.73
2018-09-11T10:11:50.640Z,60.49
2018-09-11T10:12:50.567Z,59.16
2018-09-11T10:13:50.479Z,59.03
2018-09-11T10:14:50.413Z,60.95
2018-09-11T10:17:32.753Z,60.72
2018-09-11T10:18:32.676Z,59.64
2018-09-11T10:19:32.543Z,59.62
2018-09-11T10:20:32.492Z,59.06
2018-09-11T10:21:32.494Z,59.35
2018-09-11T10:22:32.352Z,58.24
2018-09-11T10:23:32.322Z,57.63
2018-09-11T10:24:32.231Z,57.79
2018-09-11T10:25:32.165Z,58.02
2018-09-11T10:28:14.229Z,57.89
2018-09-11T10:29:14.143Z,58.80
2018-09-11T10:39:12.192Z,59.10
2018-09-11T10:40:12.097Z,59.06
2018-09-11T10:42:54.199Z,56.71
2018-09-11T10:43:54.162Z,56.89
2018-09-11T10:44:54.062Z,58.18
2018-09-11T10:45:54.004Z,58.12
2018-09-11T10:46:53.922Z,57.40
2018-09-11T10:47:53.857Z,58.87
2018-09-11T10:48:53.877Z,57.82
2018-09-11T10:49:53.846Z,57.65
2018-09-11T10:50:53.666Z,56.77
2018-09-11T10:51:53.635Z,57.46
2018-09-11T10:52:53.540Z,56.87
2018-09-11T10:55:35.789Z,58.94
2018-09-11T10:56:35.641Z,59.07
2018-09-11T10:57:35.554Z,60.70
2018-09-11T10:58:35.504Z,60.24
2018-09-11T10:59:35.453Z,59.52
2018-09-11T11:02:17.708Z,57.36
2018-09-11T11:06:38.704Z,56.32
2018-09-11T11:09:20.761Z,58.06
2018-09-11T11:10:20.672Z,58.84
2018-09-11T11:11:20.593Z,58.28
2018-09-11T11:12:20.508Z,58.35
2018-09-11T11:13:20.479Z,58.77
2018-09-11T11:14:20.390Z,57.64
2018-09-11T11:15:20.300Z,58.84
2018-09-11T11:16:20.265Z,58.60
2018-09-11T11:17:20.175Z,57.37
2018-09-11T11:18:20.122Z,58.35
2018-09-11T11:19:20.047Z,58.15
2018-09-11T11:20:21.002Z,58.15
2018-09-11T11:21:19.920Z,57.31
2018-09-11T11:22:19.838Z,58.03
2018-09-11T11:23:19.762Z,58.45
2018-09-11T11:24:19.715Z,59.23
2018-09-11T11:25:19.709Z,57.70
2018-09-11T11:26:19.592Z,56.75
2018-09-11T11:27:19.575Z,56.36
2018-09-11T11:28:19.445Z,56.26
2018-09-11T11:29:19.396Z,57.50
2018-09-11T11:30:19.321Z,57.53
2018-09-11T11:31:19.230Z,57.17
2018-09-11T11:32:19.192Z,57.17
2018-09-11T11:33:19.128Z,57.40
2018-09-11T11:34:19.048Z,57.11
2018-09-11T11:35:18.993Z,57.43
2018-09-11T11:38:01.227Z,56.00
2018-09-11T11:39:01.155Z,57.04
2018-09-11T11:40:01.085Z,57.14
2018-09-11T11:41:01.064Z,57.43
2018-09-11T11:42:00.953Z,56.12
2018-09-11T11:43:00.890Z,55.80
2018-09-11T11:44:00.861Z,55.02
2018-09-11T11:45:00.756Z,55.80
2018-09-11T11:46:00.708Z,55.09
2018-09-11T11:47:00.621Z,55.97
2018-09-11T11:48:00.554Z,56.00
2018-09-11T11:49:01.512Z,55.65
2018-09-11T11:50:00.416Z,56.72
2018-09-11T11:51:01.372Z,56.43
2018-09-11T11:52:00.275Z,57.09
2018-09-11T11:53:00.236Z,56.62
2018-09-11T11:54:00.149Z,57.06
2018-09-11T11:55:00.155Z,56.33
2018-09-11T11:56:00.042Z,56.40
2018-09-11T11:57:00.970Z,55.75
2018-09-11T11:57:59.886Z,56.56
2018-09-11T11:58:59.864Z,56.43
2018-09-11T11:59:59.755Z,55.58
2018-09-11T12:00:59.697Z,55.36
2018-09-11T12:01:59.683Z,56.23
2018-09-11T12:04:41.729Z,55.61
2018-09-11T12:07:23.746Z,57.09
2018-09-11T12:10:05.732Z,58.07
2018-09-11T12:11:05.679Z,59.53
2018-09-11T12:12:05.606Z,60.50
2018-09-11T12:13:05.552Z,60.67
2018-09-11T12:14:05.444Z,60.61
2018-09-11T12:15:05.382Z,62.55
2018-09-11T12:16:05.327Z,62.94
2018-09-11T12:17:05.345Z,63.52
2018-09-11T12:18:05.171Z,63.13
2018-09-11T12:19:05.182Z,63.01
2018-09-11T12:20:05.019Z,62.91
2018-09-11T12:21:04.953Z,63.39
2018-09-11T12:22:04.895Z,63.39
2018-09-11T12:23:04.844Z,63.78
2018-09-11T12:24:04.723Z,63.13
2018-09-11T12:25:04.681Z,62.26
2018-09-11T12:26:04.610Z,62.42
2018-09-11T12:28:46.751Z,62.52
2018-09-11T12:29:46.669Z,62.94
2018-09-11T12:30:46.589Z,62.91
2018-09-11T12:31:46.555Z,63.01
2018-09-11T12:38:27.391Z,63.49
2018-09-11T12:39:27.319Z,63.26
2018-09-11T12:40:27.230Z,63.65
2018-09-11T12:41:27.156Z,63.26
2018-09-11T12:42:27.099Z,63.39
2018-09-11T12:43:27.033Z,63.88
2018-09-11T12:44:26.933Z,63.29
2018-09-11T12:45:26.858Z,63.20
2018-09-11T12:46:27.039Z,63.59
2018-09-11T12:47:27.263Z,63.26
2018-09-11T12:48:26.783Z,63.10
2018-09-11T12:49:26.566Z,63.36
2018-09-11T12:50:26.489Z,63.07
2018-09-11T12:53:08.772Z,63.75
2018-09-11T12:54:09.693Z,63.39
2018-09-11T12:55:08.596Z,63.26
2018-09-11T12:56:08.529Z,64.07
2018-09-11T12:57:08.446Z,63.68
2018-09-11T12:58:08.402Z,63.10
2018-09-11T12:59:08.297Z,63.20
2018-09-11T13:00:08.248Z,63.78
2018-09-11T13:01:08.158Z,63.29
2018-09-11T13:02:08.079Z,63.88
2018-09-11T13:03:07.995Z,62.52
2018-09-11T13:04:07.955Z,62.71
2018-09-11T13:05:07.844Z,62.42
2018-09-11T13:07:49.754Z,62.71
2018-09-11T13:08:49.717Z,62.91
2018-09-11T13:09:49.598Z,63.07
2018-09-11T13:12:31.750Z,64.07
2018-09-11T13:13:31.694Z,63.29
2018-09-11T13:14:31.625Z,63.20
2018-09-11T13:15:31.531Z,64.17
2018-09-11T13:16:31.450Z,63.98
2018-09-11T13:19:13.850Z,62.35
2018-09-11T13:21:55.761Z,62.65
2018-09-11T13:22:55.693Z,62.74
2018-09-11T13:23:55.627Z,62.91
2018-09-11T13:24:55.563Z,63.49
2018-09-11T13:25:55.450Z,63.29
2018-09-11T13:28:37.755Z,63.10
2018-09-11T13:29:37.713Z,63.39
2018-09-11T13:30:37.617Z,62.84
2018-09-11T13:31:37.536Z,62.65
2018-09-11T13:32:37.462Z,63.32
2018-09-11T13:33:37.425Z,62.55
2018-09-11T13:34:37.323Z,62.65
2018-09-11T13:37:19.259Z,61.65
2018-09-11T13:38:19.190Z,61.84
2018-09-11T13:39:19.103Z,62.65
2018-09-11T13:40:19.072Z,62.16
2018-09-11T13:41:18.964Z,61.97
2018-09-11T13:44:01.263Z,62.26
2018-09-11T13:45:01.208Z,62.94
2018-09-11T13:46:01.109Z,63.13
2018-09-11T13:47:01.075Z,62.74
2018-09-11T13:48:00.979Z,62.16
2018-09-11T13:49:00.905Z,62.16
2018-09-11T13:50:00.830Z,61.68
2018-09-11T13:51:01.761Z,62.19
2018-09-11T13:52:00.674Z,61.61
2018-09-11T13:53:00.637Z,61.12
2018-09-11T13:54:00.511Z,61.41
2018-09-11T13:56:42.955Z,61.12
2018-09-11T13:57:42.734Z,60.44
2018-09-11T13:58:42.612Z,61.12
2018-09-11T13:59:42.555Z,60.35
2018-09-11T14:00:42.487Z,61.02
2018-09-11T14:01:42.417Z,60.44
2018-09-11T14:02:42.459Z,60.12
2018-09-11T14:03:42.250Z,61.09
2018-09-11T14:04:42.170Z,61.19
2018-09-11T14:05:42.127Z,61.09
2018-09-11T14:06:42.038Z,60.80
2018-09-11T14:07:41.945Z,61.12
2018-09-11T14:08:41.904Z,60.35
2018-09-11T14:11:24.901Z,60.35
2018-09-11T14:12:23.711Z,60.35
2018-09-11T14:13:23.624Z,59.57
2018-09-11T14:14:23.551Z,59.47
2018-09-11T14:15:23.467Z,58.98
2018-09-11T14:16:23.433Z,58.79
2018-09-11T14:17:23.329Z,58.98
2018-09-11T14:18:23.256Z,58.21
2018-09-11T14:19:23.172Z,57.53
2018-09-11T14:20:23.111Z,58.11
2018-09-11T14:21:23.109Z,57.53
2018-09-11T14:22:22.979Z,57.07
2018-09-11T14:23:22.876Z,56.75
2018-09-11T14:24:22.801Z,56.95
2018-09-11T14:25:22.723Z,56.07
2018-09-11T14:26:22.658Z,55.98
2018-09-11T14:27:22.622Z,56.75
2018-09-11T14:28:22.510Z,56.36
2018-09-11T14:29:22.474Z,56.68
2018-09-11T14:30:22.377Z,56.16
2018-09-11T14:31:22.304Z,56.56
2018-09-11T14:32:22.219Z,55.78
2018-09-11T14:33:22.125Z,56.16
2018-09-11T14:34:22.113Z,56.26
2018-09-11T14:35:21.983Z,56.85
2018-09-11T14:36:21.917Z,56.07
2018-09-11T14:37:21.849Z,55.39
2018-09-11T14:40:03.792Z,55.00
2018-09-11T14:41:03.704Z,54.90
2018-09-11T14:42:03.653Z,54.90
2018-09-11T14:43:03.588Z,54.80
2018-09-11T14:44:03.485Z,54.80
2018-09-11T14:45:03.421Z,54.90
2018-09-11T14:46:03.346Z,55.10
2018-09-11T14:47:04.285Z,55.10
2018-09-11T14:48:03.187Z,55.00
2018-09-11T14:49:03.112Z,55.19
2018-09-11T14:50:03.069Z,55.00
2018-09-11T14:51:02.980Z,55.58
2018-09-11T14:52:02.900Z,55.29
2018-09-11T14:53:02.837Z,55.03
2018-09-11T14:54:02.751Z,55.19
2018-09-11T14:55:02.674Z,55.10
2018-09-11T14:56:02.618Z,55.39
2018-09-11T14:58:44.800Z,55.29
2018-09-11T14:59:44.723Z,55.19
2018-09-11T15:00:44.634Z,55.00
2018-09-11T15:01:44.573Z,55.19
2018-09-11T15:02:44.512Z,55.78
2018-09-11T15:03:45.496Z,55.29
2018-09-11T15:04:44.339Z,54.90
2018-09-11T15:05:44.276Z,54.52
2018-09-11T15:06:44.216Z,54.52
2018-09-11T15:07:44.151Z,54.71
2018-09-11T15:08:44.072Z,54.61
2018-09-11T15:09:43.980Z,54.52
2018-09-11T15:10:43.902Z,54.71
2018-09-11T15:13:25.812Z,54.61
2018-09-11T15:14:25.753Z,55.39
2018-09-11T15:15:25.641Z,54.61
2018-09-11T15:16:25.582Z,55.29
2018-09-11T15:17:25.505Z,55.39
2018-09-11T15:18:25.584Z,55.78
2018-09-11T15:19:25.343Z,55.19
2018-09-11T15:20:25.277Z,55.98
2018-09-11T15:21:25.192Z,56.16
2018-09-11T15:22:25.124Z,56.26
2018-09-11T15:23:25.072Z,56.26
2018-09-11T15:24:24.991Z,55.49
2018-09-11T15:25:24.899Z,55.88
2018-09-11T15:28:32.323Z,55.88
2018-09-11T15:29:32.270Z,55.49
2018-09-11T15:30:32.162Z,55.78
2018-09-11T15:31:32.076Z,56.14
2018-09-11T15:32:32.005Z,55.78
2018-09-11T15:33:31.952Z,55.29
2018-09-11T15:34:32.881Z,54.90
2018-09-11T15:35:31.792Z,55.49
2018-09-11T15:36:31.703Z,55.78
2018-09-11T15:37:31.650Z,55.39
2018-09-11T15:38:31.744Z,55.98
2018-09-11T15:39:31.741Z,56.85
2018-09-11T15:40:31.803Z,55.98
2018-09-11T15:41:31.645Z,55.88
2018-09-11T15:42:31.263Z,55.10
2018-09-11T15:43:31.176Z,55.39
2018-09-11T15:44:31.267Z,55.58
2018-09-11T15:45:31.052Z,55.58
2018-09-11T15:46:30.977Z,55.98
2018-09-11T15:47:30.883Z,55.39
2018-09-11T15:50:12.833Z,55.58
2018-09-11T15:52:54.824Z,54.61
2018-09-11T15:53:54.749Z,55.58
2018-09-11T15:54:54.705Z,55.58
2018-09-11T15:55:54.709Z,55.88
2018-09-11T15:56:54.527Z,55.58
2018-09-11T15:57:54.448Z,55.39
2018-09-11T15:58:54.369Z,55.68
2018-09-11T15:59:54.305Z,55.39
2018-09-11T16:00:54.243Z,55.49
2018-09-11T16:03:36.315Z,55.58
2018-09-11T16:04:36.241Z,55.00
2018-09-11T16:05:36.203Z,55.19
2018-09-11T16:06:36.129Z,55.39
2018-09-11T16:07:36.012Z,55.29
2018-09-11T16:08:35.987Z,55.10
2018-09-11T16:09:35.945Z,55.00
2018-09-11T16:10:35.827Z,54.97
2018-09-11T16:11:35.831Z,55.29
2018-09-11T16:12:35.645Z,55.75
2018-09-11T16:13:35.557Z,55.55
2018-09-11T16:16:17.849Z,55.65
2018-09-11T16:17:17.756Z,55.27
2018-09-11T16:18:17.678Z,55.55
2018-09-11T16:19:17.607Z,55.55
2018-09-11T16:20:17.549Z,56.24